sensor_id;sensor_type;location;lat;lon;timestamp;P1;durP1;ratioP1;P2;durP2;ratioP2
27383;SDS011;14851;51.166;4.760;2024-03-02T00:01:18;1.20;;;0.50;;
27383;SDS011;14851;51.166;4.760;2024-03-02T00:03:44;0.75;;;0.40;;
27383;SDS011;14851;51.166;4.760;2024-03-02T00:06:10;1.00;;;0.32;;
27383;SDS011;14851;51.166;4.760;2024-03-02T00:08:38;1.20;;;0.65;;
27383;SDS011;14851;51.166;4.760;2024-03-02T00:11:06;11.18;;;5.82;;
27383;SDS011;14851;51.166;4.760;2024-03-02T00:13:33;10.38;;;5.85;;
27383;SDS011;14851;51.166;4.760;2024-03-02T00:16:00;10.50;;;6.28;;
27383;SDS011;14851;51.166;4.760;2024-03-02T00:18:27;4.97;;;1.55;;
27383;SDS011;14851;51.166;4.760;2024-03-02T00:20:56;0.95;;;0.60;;
27383;SDS011;14851;51.166;4.760;2024-03-02T00:23:23;0.68;;;0.47;;
27383;SDS011;14851;51.166;4.760;2024-03-02T00:25:53;1.15;;;0.57;;
27383;SDS011;14851;51.166;4.760;2024-03-02T00:33:36;0.50;;;0.30;;
27383;SDS011;14851;51.166;4.760;2024-03-02T00:36:03;0.52;;;0.38;;
27383;SDS011;14851;51.166;4.760;2024-03-02T00:38:32;1.08;;;0.35;;
27383;SDS011;14851;51.166;4.760;2024-03-02T00:40:59;0.95;;;0.32;;
27383;SDS011;14851;51.166;4.760;2024-03-02T00:46:12;1.13;;;0.40;;
27383;SDS011;14851;51.166;4.760;2024-03-02T00:49:02;0.73;;;0.40;;
27383;SDS011;14851;51.166;4.760;2024-03-02T00:51:37;0.57;;;0.30;;
27383;SDS011;14851;51.166;4.760;2024-03-02T00:54:05;0.70;;;0.38;;
27383;SDS011;14851;51.166;4.760;2024-03-02T00:56:36;0.63;;;0.30;;
27383;SDS011;14851;51.166;4.760;2024-03-02T00:59:06;0.40;;;0.35;;
27383;SDS011;14851;51.166;4.760;2024-03-02T01:01:33;1.00;;;0.25;;
27383;SDS011;14851;51.166;4.760;2024-03-02T01:04:01;0.65;;;0.40;;
27383;SDS011;14851;51.166;4.760;2024-03-02T01:06:27;0.40;;;0.30;;
27383;SDS011;14851;51.166;4.760;2024-03-02T01:08:53;0.43;;;0.20;;
27383;SDS011;14851;51.166;4.760;2024-03-02T01:11:19;0.40;;;0.35;;
27383;SDS011;14851;51.166;4.760;2024-03-02T01:13:47;2.53;;;0.50;;
27383;SDS011;14851;51.166;4.760;2024-03-02T01:16:13;0.57;;;0.40;;
27383;SDS011;14851;51.166;4.760;2024-03-02T01:18:43;0.77;;;0.50;;
27383;SDS011;14851;51.166;4.760;2024-03-02T01:21:09;2.47;;;0.50;;
27383;SDS011;14851;51.166;4.760;2024-03-02T01:23:37;1.67;;;0.50;;
27383;SDS011;14851;51.166;4.760;2024-03-02T01:26:03;1.75;;;0.30;;
27383;SDS011;14851;51.166;4.760;2024-03-02T01:28:29;0.80;;;0.30;;
27383;SDS011;14851;51.166;4.760;2024-03-02T01:30:54;0.60;;;0.43;;
27383;SDS011;14851;51.166;4.760;2024-03-02T01:33:21;0.60;;;0.35;;
27383;SDS011;14851;51.166;4.760;2024-03-02T01:35:46;0.30;;;0.25;;
27383;SDS011;14851;51.166;4.760;2024-03-02T01:38:12;1.73;;;0.40;;
27383;SDS011;14851;51.166;4.760;2024-03-02T01:40:39;1.98;;;0.32;;
27383;SDS011;14851;51.166;4.760;2024-03-02T01:43:05;0.77;;;0.30;;
27383;SDS011;14851;51.166;4.760;2024-03-02T01:45:33;0.52;;;0.30;;
27383;SDS011;14851;51.166;4.760;2024-03-02T01:48:00;1.48;;;0.30;;
27383;SDS011;14851;51.166;4.760;2024-03-02T01:50:34;1.05;;;0.52;;
27383;SDS011;14851;51.166;4.760;2024-03-02T01:53:01;0.30;;;0.30;;
27383;SDS011;14851;51.166;4.760;2024-03-02T01:55:32;0.95;;;0.32;;
27383;SDS011;14851;51.166;4.760;2024-03-02T01:57:59;0.52;;;0.40;;
27383;SDS011;14851;51.166;4.760;2024-03-02T02:00:28;2.25;;;0.40;;
27383;SDS011;14851;51.166;4.760;2024-03-02T02:02:55;0.93;;;0.40;;
27383;SDS011;14851;51.166;4.760;2024-03-02T02:05:22;2.50;;;0.60;;
27383;SDS011;14851;51.166;4.760;2024-03-02T02:07:52;1.60;;;0.50;;
27383;SDS011;14851;51.166;4.760;2024-03-02T02:10:20;0.73;;;0.43;;
27383;SDS011;14851;51.166;4.760;2024-03-02T02:12:46;0.50;;;0.50;;
27383;SDS011;14851;51.166;4.760;2024-03-02T02:15:26;0.85;;;0.50;;
27383;SDS011;14851;51.166;4.760;2024-03-02T02:17:54;1.10;;;0.68;;
27383;SDS011;14851;51.166;4.760;2024-03-02T02:20:20;0.77;;;0.45;;
27383;SDS011;14851;51.166;4.760;2024-03-02T02:25:24;0.75;;;0.38;;
27383;SDS011;14851;51.166;4.760;2024-03-02T02:27:51;0.77;;;0.40;;
27383;SDS011;14851;51.166;4.760;2024-03-02T02:30:21;0.30;;;0.30;;
27383;SDS011;14851;51.166;4.760;2024-03-02T02:32:50;1.77;;;0.30;;
27383;SDS011;14851;51.166;4.760;2024-03-02T02:35:18;0.98;;;0.30;;
27383;SDS011;14851;51.166;4.760;2024-03-02T02:37:44;2.20;;;0.60;;
27383;SDS011;14851;51.166;4.760;2024-03-02T02:40:11;1.00;;;0.43;;
27383;SDS011;14851;51.166;4.760;2024-03-02T02:42:40;0.77;;;0.40;;
27383;SDS011;14851;51.166;4.760;2024-03-02T02:45:06;0.55;;;0.30;;
27383;SDS011;14851;51.166;4.760;2024-03-02T02:47:36;1.50;;;0.43;;
27383;SDS011;14851;51.166;4.760;2024-03-02T02:50:08;1.17;;;0.30;;
27383;SDS011;14851;51.166;4.760;2024-03-02T02:52:38;1.02;;;0.30;;
27383;SDS011;14851;51.166;4.760;2024-03-02T02:55:14;0.60;;;0.20;;
27383;SDS011;14851;51.166;4.760;2024-03-02T02:57:41;1.42;;;0.38;;
27383;SDS011;14851;51.166;4.760;2024-03-02T03:00:09;5.50;;;0.40;;
27383;SDS011;14851;51.166;4.760;2024-03-02T03:02:40;0.50;;;0.30;;
27383;SDS011;14851;51.166;4.760;2024-03-02T03:05:12;1.42;;;0.52;;
27383;SDS011;14851;51.166;4.760;2024-03-02T03:07:39;1.30;;;0.35;;
27383;SDS011;14851;51.166;4.760;2024-03-02T03:10:06;2.40;;;0.40;;
27383;SDS011;14851;51.166;4.760;2024-03-02T03:12:33;0.93;;;0.30;;
27383;SDS011;14851;51.166;4.760;2024-03-02T03:15:08;0.88;;;0.32;;
27383;SDS011;14851;51.166;4.760;2024-03-02T03:17:37;2.50;;;0.40;;
27383;SDS011;14851;51.166;4.760;2024-03-02T03:20:03;0.80;;;0.30;;
27383;SDS011;14851;51.166;4.760;2024-03-02T03:22:30;1.02;;;0.40;;
27383;SDS011;14851;51.166;4.760;2024-03-02T03:25:00;0.80;;;0.30;;
27383;SDS011;14851;51.166;4.760;2024-03-02T03:27:26;3.50;;;0.50;;
27383;SDS011;14851;51.166;4.760;2024-03-02T03:29:52;1.95;;;0.57;;
27383;SDS011;14851;51.166;4.760;2024-03-02T03:32:18;1.23;;;0.38;;
27383;SDS011;14851;51.166;4.760;2024-03-02T03:34:43;1.73;;;0.43;;
27383;SDS011;14851;51.166;4.760;2024-03-02T03:37:09;2.65;;;0.52;;
27383;SDS011;14851;51.166;4.760;2024-03-02T03:39:37;2.00;;;0.50;;
27383;SDS011;14851;51.166;4.760;2024-03-02T03:42:03;2.58;;;0.50;;
27383;SDS011;14851;51.166;4.760;2024-03-02T03:44:29;2.35;;;0.50;;
27383;SDS011;14851;51.166;4.760;2024-03-02T03:46:55;1.05;;;0.30;;
27383;SDS011;14851;51.166;4.760;2024-03-02T03:49:21;3.22;;;0.60;;
27383;SDS011;14851;51.166;4.760;2024-03-02T03:51:47;2.75;;;0.40;;
27383;SDS011;14851;51.166;4.760;2024-03-02T03:54:13;1.50;;;0.40;;
27383;SDS011;14851;51.166;4.760;2024-03-02T03:56:41;0.80;;;0.50;;
27383;SDS011;14851;51.166;4.760;2024-03-02T03:59:06;0.60;;;0.30;;
27383;SDS011;14851;51.166;4.760;2024-03-02T04:01:32;1.20;;;0.30;;
27383;SDS011;14851;51.166;4.760;2024-03-02T04:03:58;0.85;;;0.30;;
27383;SDS011;14851;51.166;4.760;2024-03-02T04:06:24;3.28;;;0.60;;
27383;SDS011;14851;51.166;4.760;2024-03-02T04:08:50;0.65;;;0.30;;
27383;SDS011;14851;51.166;4.760;2024-03-02T04:11:16;2.53;;;0.75;;
27383;SDS011;14851;51.166;4.760;2024-03-02T04:13:42;2.78;;;0.30;;
27383;SDS011;14851;51.166;4.760;2024-03-02T04:16:08;2.40;;;0.47;;
27383;SDS011;14851;51.166;4.760;2024-03-02T04:18:33;2.53;;;0.52;;
27383;SDS011;14851;51.166;4.760;2024-03-02T04:21:00;2.30;;;0.50;;
27383;SDS011;14851;51.166;4.760;2024-03-02T04:23:28;1.20;;;0.47;;
27383;SDS011;14851;51.166;4.760;2024-03-02T04:25:57;3.08;;;0.93;;
27383;SDS011;14851;51.166;4.760;2024-03-02T04:28:22;1.00;;;0.40;;
27383;SDS011;14851;51.166;4.760;2024-03-02T04:30:48;2.50;;;0.50;;
27383;SDS011;14851;51.166;4.760;2024-03-02T04:33:16;3.05;;;0.60;;
27383;SDS011;14851;51.166;4.760;2024-03-02T04:35:42;1.08;;;0.38;;
27383;SDS011;14851;51.166;4.760;2024-03-02T04:38:08;1.67;;;0.40;;
27383;SDS011;14851;51.166;4.760;2024-03-02T04:40:34;2.03;;;0.50;;
27383;SDS011;14851;51.166;4.760;2024-03-02T04:43:00;3.00;;;0.70;;
27383;SDS011;14851;51.166;4.760;2024-03-02T04:45:25;1.38;;;0.52;;
27383;SDS011;14851;51.166;4.760;2024-03-02T04:47:54;1.08;;;0.40;;
27383;SDS011;14851;51.166;4.760;2024-03-02T04:50:22;1.10;;;0.50;;
27383;SDS011;14851;51.166;4.760;2024-03-02T04:52:50;0.98;;;0.50;;
27383;SDS011;14851;51.166;4.760;2024-03-02T04:55:15;2.72;;;0.60;;
27383;SDS011;14851;51.166;4.760;2024-03-02T04:57:41;2.35;;;0.55;;
27383;SDS011;14851;51.166;4.760;2024-03-02T05:00:07;1.10;;;0.40;;
27383;SDS011;14851;51.166;4.760;2024-03-02T05:02:37;4.38;;;0.95;;
27383;SDS011;14851;51.166;4.760;2024-03-02T05:05:03;1.85;;;0.68;;
27383;SDS011;14851;51.166;4.760;2024-03-02T05:07:29;2.50;;;0.70;;
27383;SDS011;14851;51.166;4.760;2024-03-02T05:09:55;5.10;;;0.60;;
27383;SDS011;14851;51.166;4.760;2024-03-02T05:12:20;1.40;;;0.43;;
27383;SDS011;14851;51.166;4.760;2024-03-02T05:15:05;3.08;;;0.60;;
27383;SDS011;14851;51.166;4.760;2024-03-02T05:17:36;2.38;;;0.55;;
27383;SDS011;14851;51.166;4.760;2024-03-02T05:20:06;1.95;;;0.50;;
27383;SDS011;14851;51.166;4.760;2024-03-02T05:22:38;3.72;;;0.73;;
27383;SDS011;14851;51.166;4.760;2024-03-02T05:25:04;2.53;;;0.52;;
27383;SDS011;14851;51.166;4.760;2024-03-02T05:27:31;2.03;;;0.45;;
27383;SDS011;14851;51.166;4.760;2024-03-02T05:29:59;1.15;;;0.50;;
27383;SDS011;14851;51.166;4.760;2024-03-02T05:32:26;1.67;;;0.60;;
27383;SDS011;14851;51.166;4.760;2024-03-02T05:34:51;1.35;;;0.65;;
27383;SDS011;14851;51.166;4.760;2024-03-02T05:37:17;2.50;;;0.50;;
27383;SDS011;14851;51.166;4.760;2024-03-02T05:39:43;2.50;;;0.47;;
27383;SDS011;14851;51.166;4.760;2024-03-02T05:42:11;1.38;;;0.70;;
27383;SDS011;14851;51.166;4.760;2024-03-02T05:44:37;2.33;;;0.40;;
27383;SDS011;14851;51.166;4.760;2024-03-02T05:47:06;3.17;;;0.55;;
27383;SDS011;14851;51.166;4.760;2024-03-02T05:49:36;2.35;;;0.50;;
27383;SDS011;14851;51.166;4.760;2024-03-02T05:52:02;1.25;;;0.50;;
27383;SDS011;14851;51.166;4.760;2024-03-02T05:54:28;2.20;;;0.50;;
27383;SDS011;14851;51.166;4.760;2024-03-02T05:56:54;3.85;;;0.70;;
27383;SDS011;14851;51.166;4.760;2024-03-02T05:59:22;2.90;;;0.70;;
27383;SDS011;14851;51.166;4.760;2024-03-02T06:01:48;1.10;;;0.50;;
27383;SDS011;14851;51.166;4.760;2024-03-02T06:04:17;2.88;;;0.50;;
27383;SDS011;14851;51.166;4.760;2024-03-02T06:06:43;3.53;;;0.68;;
27383;SDS011;14851;51.166;4.760;2024-03-02T06:09:09;2.17;;;0.50;;
27383;SDS011;14851;51.166;4.760;2024-03-02T06:11:38;1.85;;;0.82;;
27383;SDS011;14851;51.166;4.760;2024-03-02T06:14:05;2.25;;;0.60;;
27383;SDS011;14851;51.166;4.760;2024-03-02T06:16:35;1.95;;;0.55;;
27383;SDS011;14851;51.166;4.760;2024-03-02T06:19:03;2.10;;;0.77;;
27383;SDS011;14851;51.166;4.760;2024-03-02T06:21:28;2.47;;;0.60;;
27383;SDS011;14851;51.166;4.760;2024-03-02T06:23:57;3.33;;;0.80;;
27383;SDS011;14851;51.166;4.760;2024-03-02T06:26:23;1.10;;;0.65;;
27383;SDS011;14851;51.166;4.760;2024-03-02T06:28:49;2.65;;;0.73;;
27383;SDS011;14851;51.166;4.760;2024-03-02T06:31:14;2.63;;;0.60;;
27383;SDS011;14851;51.166;4.760;2024-03-02T06:33:40;2.92;;;0.77;;
27383;SDS011;14851;51.166;4.760;2024-03-02T06:36:06;3.25;;;0.75;;
27383;SDS011;14851;51.166;4.760;2024-03-02T06:38:37;2.15;;;0.75;;
27383;SDS011;14851;51.166;4.760;2024-03-02T06:41:02;2.25;;;0.77;;
27383;SDS011;14851;51.166;4.760;2024-03-02T06:43:28;1.20;;;0.52;;
27383;SDS011;14851;51.166;4.760;2024-03-02T06:45:54;4.97;;;1.00;;
27383;SDS011;14851;51.166;4.760;2024-03-02T06:48:20;2.28;;;0.70;;
27383;SDS011;14851;51.166;4.760;2024-03-02T06:50:46;2.10;;;0.60;;
27383;SDS011;14851;51.166;4.760;2024-03-02T06:53:18;2.92;;;1.05;;
27383;SDS011;14851;51.166;4.760;2024-03-02T06:55:44;1.55;;;0.73;;
27383;SDS011;14851;51.166;4.760;2024-03-02T06:58:17;2.55;;;0.80;;
27383;SDS011;14851;51.166;4.760;2024-03-02T07:00:43;1.38;;;0.50;;
27383;SDS011;14851;51.166;4.760;2024-03-02T07:03:12;1.77;;;0.40;;
27383;SDS011;14851;51.166;4.760;2024-03-02T07:05:38;3.20;;;0.95;;
27383;SDS011;14851;51.166;4.760;2024-03-02T07:08:04;3.95;;;0.80;;
27383;SDS011;14851;51.166;4.760;2024-03-02T07:10:31;4.88;;;0.75;;
27383;SDS011;14851;51.166;4.760;2024-03-02T07:12:59;5.00;;;1.40;;
27383;SDS011;14851;51.166;4.760;2024-03-02T07:15:24;2.13;;;0.60;;
27383;SDS011;14851;51.166;4.760;2024-03-02T07:17:53;3.08;;;0.82;;
27383;SDS011;14851;51.166;4.760;2024-03-02T07:20:22;2.85;;;1.02;;
27383;SDS011;14851;51.166;4.760;2024-03-02T07:22:48;3.30;;;0.85;;
27383;SDS011;14851;51.166;4.760;2024-03-02T07:25:13;3.78;;;0.70;;
27383;SDS011;14851;51.166;4.760;2024-03-02T07:27:39;1.63;;;0.70;;
27383;SDS011;14851;51.166;4.760;2024-03-02T07:30:06;1.45;;;0.60;;
27383;SDS011;14851;51.166;4.760;2024-03-02T07:32:33;4.13;;;0.65;;
27383;SDS011;14851;51.166;4.760;2024-03-02T07:34:59;3.83;;;0.90;;
27383;SDS011;14851;51.166;4.760;2024-03-02T07:37:26;1.42;;;0.70;;
27383;SDS011;14851;51.166;4.760;2024-03-02T07:39:54;3.83;;;0.75;;
27383;SDS011;14851;51.166;4.760;2024-03-02T07:42:19;5.10;;;0.85;;
27383;SDS011;14851;51.166;4.760;2024-03-02T07:44:46;3.45;;;1.25;;
27383;SDS011;14851;51.166;4.760;2024-03-02T07:47:13;2.03;;;0.70;;
27383;SDS011;14851;51.166;4.760;2024-03-02T07:49:39;1.80;;;0.93;;
27383;SDS011;14851;51.166;4.760;2024-03-02T07:52:08;6.82;;;0.77;;
27383;SDS011;14851;51.166;4.760;2024-03-02T07:54:34;2.42;;;0.70;;
27383;SDS011;14851;51.166;4.760;2024-03-02T07:57:02;1.20;;;0.60;;
27383;SDS011;14851;51.166;4.760;2024-03-02T07:59:29;3.92;;;0.90;;
27383;SDS011;14851;51.166;4.760;2024-03-02T08:01:54;4.68;;;0.60;;
27383;SDS011;14851;51.166;4.760;2024-03-02T08:04:20;3.10;;;1.00;;
27383;SDS011;14851;51.166;4.760;2024-03-02T08:06:48;3.40;;;0.80;;
27383;SDS011;14851;51.166;4.760;2024-03-02T08:09:14;3.35;;;0.82;;
27383;SDS011;14851;51.166;4.760;2024-03-02T08:11:46;4.40;;;0.80;;
27383;SDS011;14851;51.166;4.760;2024-03-02T08:14:11;5.40;;;1.63;;
27383;SDS011;14851;51.166;4.760;2024-03-02T08:16:37;3.03;;;0.80;;
27383;SDS011;14851;51.166;4.760;2024-03-02T08:19:06;5.55;;;1.10;;
27383;SDS011;14851;51.166;4.760;2024-03-02T08:21:34;4.25;;;1.02;;
27383;SDS011;14851;51.166;4.760;2024-03-02T08:24:01;4.25;;;1.15;;
27383;SDS011;14851;51.166;4.760;2024-03-02T08:26:32;5.25;;;1.13;;
27383;SDS011;14851;51.166;4.760;2024-03-02T08:28:59;3.83;;;0.85;;
27383;SDS011;14851;51.166;4.760;2024-03-02T08:31:27;6.40;;;1.00;;
27383;SDS011;14851;51.166;4.760;2024-03-02T08:33:53;5.25;;;1.02;;
27383;SDS011;14851;51.166;4.760;2024-03-02T08:36:19;3.85;;;0.90;;
27383;SDS011;14851;51.166;4.760;2024-03-02T08:38:45;2.50;;;0.93;;
27383;SDS011;14851;51.166;4.760;2024-03-02T08:41:11;4.07;;;1.00;;
27383;SDS011;14851;51.166;4.760;2024-03-02T08:43:40;2.97;;;0.77;;
27383;SDS011;14851;51.166;4.760;2024-03-02T08:46:07;4.93;;;1.00;;
27383;SDS011;14851;51.166;4.760;2024-03-02T08:48:33;6.47;;;1.00;;
27383;SDS011;14851;51.166;4.760;2024-03-02T08:50:59;4.88;;;1.35;;
27383;SDS011;14851;51.166;4.760;2024-03-02T08:53:25;5.88;;;1.10;;
27383;SDS011;14851;51.166;4.760;2024-03-02T08:55:52;4.25;;;1.00;;
27383;SDS011;14851;51.166;4.760;2024-03-02T08:58:17;4.82;;;0.80;;
27383;SDS011;14851;51.166;4.760;2024-03-02T09:00:43;2.83;;;1.00;;
27383;SDS011;14851;51.166;4.760;2024-03-02T09:03:09;4.47;;;0.70;;
27383;SDS011;14851;51.166;4.760;2024-03-02T09:05:36;4.13;;;0.70;;
27383;SDS011;14851;51.166;4.760;2024-03-02T09:08:03;3.50;;;0.55;;
27383;SDS011;14851;51.166;4.760;2024-03-02T09:10:29;5.88;;;1.00;;
27383;SDS011;14851;51.166;4.760;2024-03-02T09:12:55;5.07;;;0.90;;
27383;SDS011;14851;51.166;4.760;2024-03-02T09:15:21;4.07;;;0.70;;
27383;SDS011;14851;51.166;4.760;2024-03-02T09:17:47;6.50;;;1.40;;
27383;SDS011;14851;51.166;4.760;2024-03-02T09:20:13;2.55;;;0.98;;
27383;SDS011;14851;51.166;4.760;2024-03-02T09:22:39;3.50;;;1.17;;
27383;SDS011;14851;51.166;4.760;2024-03-02T09:25:08;5.55;;;1.00;;
27383;SDS011;14851;51.166;4.760;2024-03-02T09:27:38;5.30;;;1.05;;
27383;SDS011;14851;51.166;4.760;2024-03-02T09:30:07;3.05;;;0.50;;
27383;SDS011;14851;51.166;4.760;2024-03-02T09:32:34;4.75;;;1.50;;
27383;SDS011;14851;51.166;4.760;2024-03-02T09:35:00;2.15;;;0.70;;
27383;SDS011;14851;51.166;4.760;2024-03-02T09:37:26;4.90;;;1.08;;
27383;SDS011;14851;51.166;4.760;2024-03-02T09:39:54;8.57;;;1.95;;
27383;SDS011;14851;51.166;4.760;2024-03-02T09:42:20;4.47;;;1.00;;
27383;SDS011;14851;51.166;4.760;2024-03-02T09:44:46;6.45;;;0.90;;
27383;SDS011;14851;51.166;4.760;2024-03-02T09:47:13;4.63;;;0.98;;
27383;SDS011;14851;51.166;4.760;2024-03-02T09:49:39;3.47;;;1.33;;
27383;SDS011;14851;51.166;4.760;2024-03-02T09:52:05;3.25;;;0.60;;
27383;SDS011;14851;51.166;4.760;2024-03-02T09:54:32;4.10;;;0.98;;
27383;SDS011;14851;51.166;4.760;2024-03-02T09:56:59;1.77;;;0.55;;
27383;SDS011;14851;51.166;4.760;2024-03-02T09:59:26;3.80;;;0.90;;
27383;SDS011;14851;51.166;4.760;2024-03-02T10:02:01;5.88;;;1.00;;
27383;SDS011;14851;51.166;4.760;2024-03-02T10:04:28;4.32;;;0.93;;
27383;SDS011;14851;51.166;4.760;2024-03-02T10:09:44;4.90;;;1.00;;
27383;SDS011;14851;51.166;4.760;2024-03-02T10:12:17;3.67;;;1.10;;
27383;SDS011;14851;51.166;4.760;2024-03-02T10:14:44;4.75;;;0.90;;
27383;SDS011;14851;51.166;4.760;2024-03-02T10:17:11;4.57;;;1.58;;
27383;SDS011;14851;51.166;4.760;2024-03-02T10:19:38;6.45;;;1.00;;
27383;SDS011;14851;51.166;4.760;2024-03-02T10:22:09;7.53;;;1.00;;
27383;SDS011;14851;51.166;4.760;2024-03-02T10:27:08;4.80;;;0.93;;
27383;SDS011;14851;51.166;4.760;2024-03-02T10:29:48;5.03;;;0.70;;
27383;SDS011;14851;51.166;4.760;2024-03-02T10:32:15;4.60;;;0.90;;
27383;SDS011;14851;51.166;4.760;2024-03-02T10:34:43;3.92;;;1.30;;
27383;SDS011;14851;51.166;4.760;2024-03-02T10:37:24;4.55;;;1.02;;
27383;SDS011;14851;51.166;4.760;2024-03-02T10:39:51;3.22;;;0.75;;
27383;SDS011;14851;51.166;4.760;2024-03-02T10:42:19;5.07;;;1.25;;
27383;SDS011;14851;51.166;4.760;2024-03-02T10:44:46;3.72;;;0.80;;
27383;SDS011;14851;51.166;4.760;2024-03-02T10:47:14;4.28;;;0.90;;
27383;SDS011;14851;51.166;4.760;2024-03-02T10:49:45;4.28;;;0.90;;
27383;SDS011;14851;51.166;4.760;2024-03-02T10:52:14;2.00;;;0.73;;
27383;SDS011;14851;51.166;4.760;2024-03-02T10:54:42;8.70;;;1.10;;
27383;SDS011;14851;51.166;4.760;2024-03-02T10:57:08;4.82;;;0.90;;
27383;SDS011;14851;51.166;4.760;2024-03-02T11:02:13;4.43;;;1.17;;
27383;SDS011;14851;51.166;4.760;2024-03-02T11:04:41;3.13;;;1.20;;
27383;SDS011;14851;51.166;4.760;2024-03-02T11:07:08;4.88;;;0.98;;
27383;SDS011;14851;51.166;4.760;2024-03-02T11:09:45;5.28;;;0.90;;
27383;SDS011;14851;51.166;4.760;2024-03-02T11:12:19;4.97;;;0.93;;
27383;SDS011;14851;51.166;4.760;2024-03-02T11:14:53;6.07;;;1.02;;
27383;SDS011;14851;51.166;4.760;2024-03-02T11:17:23;4.10;;;0.98;;
27383;SDS011;14851;51.166;4.760;2024-03-02T11:19:51;4.80;;;0.93;;
27383;SDS011;14851;51.166;4.760;2024-03-02T11:22:18;5.05;;;0.80;;
27383;SDS011;14851;51.166;4.760;2024-03-02T11:24:50;6.13;;;0.95;;
27383;SDS011;14851;51.166;4.760;2024-03-02T11:33:02;4.45;;;1.02;;
27383;SDS011;14851;51.166;4.760;2024-03-02T11:35:33;6.53;;;1.15;;
27383;SDS011;14851;51.166;4.760;2024-03-02T11:38:00;6.25;;;1.63;;
27383;SDS011;14851;51.166;4.760;2024-03-02T11:40:28;3.00;;;0.68;;
27383;SDS011;14851;51.166;4.760;2024-03-02T11:42:55;6.18;;;0.85;;
27383;SDS011;14851;51.166;4.760;2024-03-02T11:45:24;4.55;;;1.02;;
27383;SDS011;14851;51.166;4.760;2024-03-02T11:47:54;4.28;;;0.95;;
27383;SDS011;14851;51.166;4.760;2024-03-02T11:50:31;4.20;;;0.80;;
27383;SDS011;14851;51.166;4.760;2024-03-02T11:53:06;2.92;;;0.73;;
27383;SDS011;14851;51.166;4.760;2024-03-02T11:55:38;5.35;;;0.77;;
27383;SDS011;14851;51.166;4.760;2024-03-02T11:58:06;3.22;;;0.77;;
27383;SDS011;14851;51.166;4.760;2024-03-02T12:00:35;3.72;;;0.80;;
27383;SDS011;14851;51.166;4.760;2024-03-02T12:05:34;3.85;;;1.00;;
27383;SDS011;14851;51.166;4.760;2024-03-02T12:08:04;2.28;;;0.70;;
27383;SDS011;14851;51.166;4.760;2024-03-02T12:10:34;3.47;;;0.90;;
27383;SDS011;14851;51.166;4.760;2024-03-02T12:13:04;3.13;;;0.82;;
27383;SDS011;14851;51.166;4.760;2024-03-02T12:15:38;3.95;;;1.00;;
27383;SDS011;14851;51.166;4.760;2024-03-02T12:18:07;3.10;;;0.77;;
27383;SDS011;14851;51.166;4.760;2024-03-02T12:20:36;6.30;;;0.77;;
27383;SDS011;14851;51.166;4.760;2024-03-02T12:23:02;4.95;;;0.80;;
27383;SDS011;14851;51.166;4.760;2024-03-02T12:25:30;2.90;;;0.80;;
27383;SDS011;14851;51.166;4.760;2024-03-02T12:28:01;3.75;;;0.70;;
27383;SDS011;14851;51.166;4.760;2024-03-02T12:30:29;4.07;;;0.55;;
27383;SDS011;14851;51.166;4.760;2024-03-02T12:32:57;3.63;;;0.60;;
27383;SDS011;14851;51.166;4.760;2024-03-02T12:35:24;4.18;;;0.70;;
27383;SDS011;14851;51.166;4.760;2024-03-02T12:37:53;2.92;;;1.00;;
27383;SDS011;14851;51.166;4.760;2024-03-02T12:40:20;1.90;;;0.50;;
27383;SDS011;14851;51.166;4.760;2024-03-02T12:42:50;3.15;;;0.60;;
27383;SDS011;14851;51.166;4.760;2024-03-02T12:45:16;5.25;;;1.10;;
27383;SDS011;14851;51.166;4.760;2024-03-02T12:47:48;6.28;;;0.90;;
27383;SDS011;14851;51.166;4.760;2024-03-02T12:50:15;5.38;;;0.80;;
27383;SDS011;14851;51.166;4.760;2024-03-02T12:52:42;5.25;;;0.93;;
27383;SDS011;14851;51.166;4.760;2024-03-02T12:55:08;2.80;;;0.85;;
27383;SDS011;14851;51.166;4.760;2024-03-02T12:57:34;2.13;;;0.70;;
27383;SDS011;14851;51.166;4.760;2024-03-02T13:00:03;3.20;;;1.00;;
27383;SDS011;14851;51.166;4.760;2024-03-02T13:02:41;3.53;;;0.60;;
27383;SDS011;14851;51.166;4.760;2024-03-02T13:05:07;1.80;;;0.57;;
27383;SDS011;14851;51.166;4.760;2024-03-02T13:07:39;3.20;;;1.02;;
27383;SDS011;14851;51.166;4.760;2024-03-02T13:10:15;7.22;;;0.98;;
27383;SDS011;14851;51.166;4.760;2024-03-02T13:12:41;6.32;;;1.00;;
27383;SDS011;14851;51.166;4.760;2024-03-02T13:15:09;4.38;;;1.20;;
27383;SDS011;14851;51.166;4.760;2024-03-02T13:17:36;4.53;;;0.90;;
27383;SDS011;14851;51.166;4.760;2024-03-02T13:20:02;5.75;;;1.00;;
27383;SDS011;14851;51.166;4.760;2024-03-02T13:22:33;3.65;;;0.80;;
27383;SDS011;14851;51.166;4.760;2024-03-02T13:24:59;2.50;;;0.63;;
27383;SDS011;14851;51.166;4.760;2024-03-02T13:27:26;3.63;;;0.90;;
27383;SDS011;14851;51.166;4.760;2024-03-02T13:29:52;2.17;;;0.50;;
27383;SDS011;14851;51.166;4.760;2024-03-02T13:32:22;4.25;;;1.15;;
27383;SDS011;14851;51.166;4.760;2024-03-02T13:34:49;5.63;;;0.98;;
27383;SDS011;14851;51.166;4.760;2024-03-02T13:37:15;3.25;;;1.10;;
27383;SDS011;14851;51.166;4.760;2024-03-02T13:39:41;3.47;;;0.70;;
27383;SDS011;14851;51.166;4.760;2024-03-02T13:42:08;2.00;;;0.73;;
27383;SDS011;14851;51.166;4.760;2024-03-02T13:44:35;8.65;;;1.13;;
27383;SDS011;14851;51.166;4.760;2024-03-02T13:47:03;1.75;;;0.80;;
27383;SDS011;14851;51.166;4.760;2024-03-02T13:49:29;4.07;;;0.63;;
27383;SDS011;14851;51.166;4.760;2024-03-02T13:52:05;3.67;;;0.93;;
27383;SDS011;14851;51.166;4.760;2024-03-02T13:54:43;4.78;;;1.02;;
27383;SDS011;14851;51.166;4.760;2024-03-02T13:57:10;3.65;;;0.82;;
27383;SDS011;14851;51.166;4.760;2024-03-02T13:59:37;2.45;;;0.63;;
27383;SDS011;14851;51.166;4.760;2024-03-02T14:02:05;3.10;;;0.90;;
27383;SDS011;14851;51.166;4.760;2024-03-02T14:04:32;3.45;;;0.85;;
27383;SDS011;14851;51.166;4.760;2024-03-02T14:07:02;3.30;;;1.08;;
27383;SDS011;14851;51.166;4.760;2024-03-02T14:09:28;3.47;;;0.70;;
27383;SDS011;14851;51.166;4.760;2024-03-02T14:11:55;3.40;;;0.80;;
27383;SDS011;14851;51.166;4.760;2024-03-02T14:14:21;1.98;;;0.55;;
27383;SDS011;14851;51.166;4.760;2024-03-02T14:16:47;3.72;;;1.10;;
27383;SDS011;14851;51.166;4.760;2024-03-02T14:19:14;3.78;;;1.02;;
27383;SDS011;14851;51.166;4.760;2024-03-02T14:21:42;3.28;;;0.50;;
27383;SDS011;14851;51.166;4.760;2024-03-02T14:24:11;1.23;;;0.55;;
27383;SDS011;14851;51.166;4.760;2024-03-02T14:26:40;2.20;;;0.70;;
27383;SDS011;14851;51.166;4.760;2024-03-02T14:29:06;4.40;;;0.77;;
27383;SDS011;14851;51.166;4.760;2024-03-02T14:31:36;2.42;;;0.50;;
27383;SDS011;14851;51.166;4.760;2024-03-02T14:34:02;2.42;;;0.50;;
27383;SDS011;14851;51.166;4.760;2024-03-02T14:36:28;4.85;;;0.70;;
27383;SDS011;14851;51.166;4.760;2024-03-02T14:38:54;4.15;;;0.80;;
27383;SDS011;14851;51.166;4.760;2024-03-02T14:41:21;2.92;;;0.82;;
27383;SDS011;14851;51.166;4.760;2024-03-02T14:43:49;3.50;;;0.63;;
27383;SDS011;14851;51.166;4.760;2024-03-02T14:46:18;1.70;;;0.60;;
27383;SDS011;14851;51.166;4.760;2024-03-02T14:48:45;1.42;;;0.70;;
27383;SDS011;14851;51.166;4.760;2024-03-02T14:51:11;2.30;;;0.68;;
27383;SDS011;14851;51.166;4.760;2024-03-02T14:53:40;4.18;;;0.70;;
27383;SDS011;14851;51.166;4.760;2024-03-02T14:56:09;2.92;;;0.85;;
27383;SDS011;14851;51.166;4.760;2024-03-02T14:58:35;2.38;;;1.05;;
27383;SDS011;14851;51.166;4.760;2024-03-02T15:01:03;2.13;;;0.63;;
27383;SDS011;14851;51.166;4.760;2024-03-02T15:03:31;4.55;;;1.58;;
27383;SDS011;14851;51.166;4.760;2024-03-02T15:05:57;4.78;;;0.93;;
27383;SDS011;14851;51.166;4.760;2024-03-02T15:08:24;2.00;;;0.65;;
27383;SDS011;14851;51.166;4.760;2024-03-02T15:10:50;3.28;;;0.82;;
27383;SDS011;14851;51.166;4.760;2024-03-02T15:13:21;2.72;;;0.88;;
27383;SDS011;14851;51.166;4.760;2024-03-02T15:15:51;3.10;;;1.10;;
27383;SDS011;14851;51.166;4.760;2024-03-02T15:18:17;2.08;;;0.50;;